sensor_id;sensor_type;location;lat;lon;timestamp;temperature;humidity
2955;DHT22;1487;51.470;6.938;2023-05-31T00:00:17;12.70;99.90
2955;DHT22;1487;51.470;6.938;2023-05-31T00:02:44;12.70;99.90
2955;DHT22;1487;51.470;6.938;2023-05-31T00:05:12;12.70;99.90
2955;DHT22;1487;51.470;6.938;2023-05-31T00:07:39;12.60;99.90
2955;DHT22;1487;51.470;6.938;2023-05-31T00:10:07;12.60;99.90
2955;DHT22;1487;51.470;6.938;2023-05-31T00:12:34;12.50;99.90
2955;DHT22;1487;51.470;6.938;2023-05-31T00:15:00;12.60;99.90
2955;DHT22;1487;51.470;6.938;2023-05-31T00:17:28;12.50;99.90
2955;DHT22;1487;51.470;6.938;2023-05-31T00:19:55;12.50;99.90
2955;DHT22;1487;51.470;6.938;2023-05-31T00:22:23;12.50;99.90
2955;DHT22;1487;51.470;6.938;2023-05-31T00:24:49;12.40;99.90
2955;DHT22;1487;51.470;6.938;2023-05-31T00:27:16;12.40;99.90
2955;DHT22;1487;51.470;6.938;2023-05-31T00:29:43;12.40;99.90
2955;DHT22;1487;51.470;6.938;2023-05-31T00:32:10;12.40;99.90
2955;DHT22;1487;51.470;6.938;2023-05-31T00:34:37;12.30;99.90
2955;DHT22;1487;51.470;6.938;2023-05-31T00:37:04;12.30;99.90
2955;DHT22;1487;51.470;6.938;2023-05-31T00:39:32;12.30;99.90
2955;DHT22;1487;51.470;6.938;2023-05-31T00:42:00;12.20;99.90
2955;DHT22;1487;51.470;6.938;2023-05-31T00:44:27;12.20;99.90
2955;DHT22;1487;51.470;6.938;2023-05-31T00:46:55;12.20;99.90
2955;DHT22;1487;51.470;6.938;2023-05-31T00:49:22;12.20;99.90
2955;DHT22;1487;51.470;6.938;2023-05-31T00:51:52;12.10;99.90
2955;DHT22;1487;51.470;6.938;2023-05-31T00:54:19;12.10;99.90
2955;DHT22;1487;51.470;6.938;2023-05-31T00:56:47;12.10;99.90
2955;DHT22;1487;51.470;6.938;2023-05-31T00:59:15;12.00;99.90
2955;DHT22;1487;51.470;6.938;2023-05-31T01:01:43;12.00;99.90
2955;DHT22;1487;51.470;6.938;2023-05-31T01:04:10;12.00;99.90
2955;DHT22;1487;51.470;6.938;2023-05-31T01:06:37;12.00;99.90
2955;DHT22;1487;51.470;6.938;2023-05-31T01:09:05;12.00;99.90
2955;DHT22;1487;51.470;6.938;2023-05-31T01:11:53;11.90;99.90
2955;DHT22;1487;51.470;6.938;2023-05-31T01:14:29;11.90;99.90
2955;DHT22;1487;51.470;6.938;2023-05-31T01:17:04;11.90;99.90
2955;DHT22;1487;51.470;6.938;2023-05-31T01:19:39;11.90;99.90
2955;DHT22;1487;51.470;6.938;2023-05-31T01:22:19;11.90;99.90
2955;DHT22;1487;51.470;6.938;2023-05-31T01:24:54;11.80;99.90
2955;DHT22;1487;51.470;6.938;2023-05-31T01:27:26;11.80;99.90
2955;DHT22;1487;51.470;6.938;2023-05-31T01:29:55;11.80;99.90
2955;DHT22;1487;51.470;6.938;2023-05-31T01:32:23;11.80;99.90
2955;DHT22;1487;51.470;6.938;2023-05-31T01:34:51;11.80;99.90
2955;DHT22;1487;51.470;6.938;2023-05-31T01:37:17;11.70;99.90
2955;DHT22;1487;51.470;6.938;2023-05-31T01:39:44;11.70;99.90
2955;DHT22;1487;51.470;6.938;2023-05-31T01:42:13;11.70;99.90
2955;DHT22;1487;51.470;6.938;2023-05-31T01:44:43;11.60;99.90
2955;DHT22;1487;51.470;6.938;2023-05-31T01:47:10;11.60;99.90
2955;DHT22;1487;51.470;6.938;2023-05-31T01:49:38;11.50;99.90
2955;DHT22;1487;51.470;6.938;2023-05-31T01:52:09;11.50;99.90
2955;DHT22;1487;51.470;6.938;2023-05-31T01:54:37;11.50;99.90
2955;DHT22;1487;51.470;6.938;2023-05-31T01:57:04;11.50;99.90
2955;DHT22;1487;51.470;6.938;2023-05-31T01:59:32;11.50;99.90
2955;DHT22;1487;51.470;6.938;2023-05-31T02:02:03;11.50;99.90
2955;DHT22;1487;51.470;6.938;2023-05-31T02:04:30;11.40;99.90
2955;DHT22;1487;51.470;6.938;2023-05-31T02:06:57;11.40;99.90
2955;DHT22;1487;51.470;6.938;2023-05-31T02:09:25;11.40;99.90
2955;DHT22;1487;51.470;6.938;2023-05-31T02:11:52;11.30;99.90
2955;DHT22;1487;51.470;6.938;2023-05-31T02:14:19;11.40;99.90
2955;DHT22;1487;51.470;6.938;2023-05-31T02:16:46;11.30;99.90
2955;DHT22;1487;51.470;6.938;2023-05-31T02:19:14;11.30;99.90
2955;DHT22;1487;51.470;6.938;2023-05-31T02:21:41;11.30;99.90
2955;DHT22;1487;51.470;6.938;2023-05-31T02:24:08;11.30;99.90
2955;DHT22;1487;51.470;6.938;2023-05-31T02:26:34;11.30;99.90
2955;DHT22;1487;51.470;6.938;2023-05-31T02:29:01;11.30;99.90
2955;DHT22;1487;51.470;6.938;2023-05-31T02:31:28;11.30;99.90
2955;DHT22;1487;51.470;6.938;2023-05-31T02:33:55;11.30;99.90
2955;DHT22;1487;51.470;6.938;2023-05-31T02:36:23;11.30;99.90
2955;DHT22;1487;51.470;6.938;2023-05-31T02:38:54;11.30;99.90
2955;DHT22;1487;51.470;6.938;2023-05-31T02:41:20;11.30;99.90
2955;DHT22;1487;51.470;6.938;2023-05-31T02:43:47;11.30;99.90
2955;DHT22;1487;51.470;6.938;2023-05-31T02:46:14;11.30;99.90
2955;DHT22;1487;51.470;6.938;2023-05-31T02:48:41;11.30;99.90
2955;DHT22;1487;51.470;6.938;2023-05-31T02:51:08;11.40;99.90
2955;DHT22;1487;51.470;6.938;2023-05-31T02:53:36;11.40;99.90
2955;DHT22;1487;51.470;6.938;2023-05-31T02:56:03;11.30;99.90
2955;DHT22;1487;51.470;6.938;2023-05-31T02:58:30;11.30;99.90
2955;DHT22;1487;51.470;6.938;2023-05-31T03:00:57;11.30;99.90
2955;DHT22;1487;51.470;6.938;2023-05-31T03:03:23;11.30;99.90
2955;DHT22;1487;51.470;6.938;2023-05-31T03:05:50;11.30;99.90
2955;DHT22;1487;51.470;6.938;2023-05-31T03:08:18;11.30;99.90
2955;DHT22;1487;51.470;6.938;2023-05-31T03:10:46;11.30;99.90
2955;DHT22;1487;51.470;6.938;2023-05-31T03:13:13;11.30;99.90
2955;DHT22;1487;51.470;6.938;2023-05-31T03:15:40;11.30;99.90
2955;DHT22;1487;51.470;6.938;2023-05-31T03:18:07;11.30;99.90
2955;DHT22;1487;51.470;6.938;2023-05-31T03:20:34;11.30;99.90
2955;DHT22;1487;51.470;6.938;2023-05-31T03:23:01;11.30;99.90
2955;DHT22;1487;51.470;6.938;2023-05-31T03:25:28;11.20;99.90
2955;DHT22;1487;51.470;6.938;2023-05-31T03:27:56;11.20;99.90
2955;DHT22;1487;51.470;6.938;2023-05-31T03:30:23;11.20;99.90
2955;DHT22;1487;51.470;6.938;2023-05-31T03:32:50;11.20;99.90
2955;DHT22;1487;51.470;6.938;2023-05-31T03:35:17;11.20;99.90
2955;DHT22;1487;51.470;6.938;2023-05-31T03:37:44;11.20;99.90
2955;DHT22;1487;51.470;6.938;2023-05-31T03:40:11;11.10;99.90
2955;DHT22;1487;51.470;6.938;2023-05-31T03:42:38;11.20;99.90
2955;DHT22;1487;51.470;6.938;2023-05-31T03:45:07;11.20;99.90
2955;DHT22;1487;51.470;6.938;2023-05-31T03:47:34;11.20;99.90
2955;DHT22;1487;51.470;6.938;2023-05-31T03:50:02;11.20;99.90
2955;DHT22;1487;51.470;6.938;2023-05-31T03:52:29;11.30;99.90
2955;DHT22;1487;51.470;6.938;2023-05-31T03:54:55;11.30;99.90
2955;DHT22;1487;51.470;6.938;2023-05-31T03:57:22;11.20;99.90
2955;DHT22;1487;51.470;6.938;2023-05-31T03:59:49;11.20;99.90
2955;DHT22;1487;51.470;6.938;2023-05-31T04:02:17;11.30;99.90
2955;DHT22;1487;51.470;6.938;2023-05-31T04:04:44;11.30;99.90
2955;DHT22;1487;51.470;6.938;2023-05-31T04:07:11;11.30;99.90
2955;DHT22;1487;51.470;6.938;2023-05-31T04:09:38;11.30;99.90
2955;DHT22;1487;51.470;6.938;2023-05-31T04:12:05;11.30;99.90
2955;DHT22;1487;51.470;6.938;2023-05-31T04:14:32;11.40;99.90
2955;DHT22;1487;51.470;6.938;2023-05-31T04:16:59;11.40;99.90
2955;DHT22;1487;51.470;6.938;2023-05-31T04:19:27;11.40;99.90
2955;DHT22;1487;51.470;6.938;2023-05-31T04:21:54;11.40;99.90
2955;DHT22;1487;51.470;6.938;2023-05-31T04:24:21;11.40;99.90
2955;DHT22;1487;51.470;6.938;2023-05-31T04:26:48;11.40;99.90
2955;DHT22;1487;51.470;6.938;2023-05-31T04:29:15;11.50;99.90
2955;DHT22;1487;51.470;6.938;2023-05-31T04:31:43;11.60;99.90
2955;DHT22;1487;51.470;6.938;2023-05-31T04:34:10;11.60;99.90
2955;DHT22;1487;51.470;6.938;2023-05-31T04:36:44;11.70;99.90
2955;DHT22;1487;51.470;6.938;2023-05-31T04:39:14;11.70;99.90
2955;DHT22;1487;51.470;6.938;2023-05-31T04:41:41;11.60;99.90
2955;DHT22;1487;51.470;6.938;2023-05-31T04:44:08;11.60;99.90
2955;DHT22;1487;51.470;6.938;2023-05-31T04:46:35;11.60;99.90
2955;DHT22;1487;51.470;6.938;2023-05-31T04:49:02;11.70;99.90
2955;DHT22;1487;51.470;6.938;2023-05-31T04:51:30;11.70;99.90
2955;DHT22;1487;51.470;6.938;2023-05-31T04:53:59;11.70;99.90
2955;DHT22;1487;51.470;6.938;2023-05-31T04:56:26;11.70;99.90
2955;DHT22;1487;51.470;6.938;2023-05-31T04:58:53;11.80;99.90
2955;DHT22;1487;51.470;6.938;2023-05-31T05:01:21;11.90;99.90
2955;DHT22;1487;51.470;6.938;2023-05-31T05:03:48;11.90;99.90
2955;DHT22;1487;51.470;6.938;2023-05-31T05:06:17;12.00;99.90
2955;DHT22;1487;51.470;6.938;2023-05-31T05:08:44;12.00;99.90
2955;DHT22;1487;51.470;6.938;2023-05-31T05:11:13;12.10;99.90
2955;DHT22;1487;51.470;6.938;2023-05-31T05:13:41;12.20;99.90
2955;DHT22;1487;51.470;6.938;2023-05-31T05:16:08;12.20;99.90
2955;DHT22;1487;51.470;6.938;2023-05-31T05:18:35;12.30;99.90
2955;DHT22;1487;51.470;6.938;2023-05-31T05:21:02;12.40;99.90
2955;DHT22;1487;51.470;6.938;2023-05-31T05:23:29;12.40;99.90
2955;DHT22;1487;51.470;6.938;2023-05-31T05:25:57;12.50;99.90
2955;DHT22;1487;51.470;6.938;2023-05-31T05:28:26;12.70;99.90
2955;DHT22;1487;51.470;6.938;2023-05-31T05:30:53;12.70;99.90
2955;DHT22;1487;51.470;6.938;2023-05-31T05:33:21;12.80;99.90
2955;DHT22;1487;51.470;6.938;2023-05-31T05:35:48;12.90;99.90
2955;DHT22;1487;51.470;6.938;2023-05-31T05:38:14;12.90;99.90
2955;DHT22;1487;51.470;6.938;2023-05-31T05:40:41;13.10;99.90
2955;DHT22;1487;51.470;6.938;2023-05-31T05:43:08;13.20;99.90
2955;DHT22;1487;51.470;6.938;2023-05-31T05:45:36;13.20;99.90
2955;DHT22;1487;51.470;6.938;2023-05-31T05:48:03;13.30;99.90
2955;DHT22;1487;51.470;6.938;2023-05-31T05:50:30;13.50;99.90
2955;DHT22;1487;51.470;6.938;2023-05-31T05:52:57;13.60;99.90
2955;DHT22;1487;51.470;6.938;2023-05-31T05:55:24;13.80;99.90
2955;DHT22;1487;51.470;6.938;2023-05-31T05:57:51;13.90;99.90
2955;DHT22;1487;51.470;6.938;2023-05-31T06:00:18;14.10;99.90
2955;DHT22;1487;51.470;6.938;2023-05-31T06:02:48;14.20;99.90
2955;DHT22;1487;51.470;6.938;2023-05-31T06:05:15;14.30;99.90
2955;DHT22;1487;51.470;6.938;2023-05-31T06:07:42;14.30;99.90
2955;DHT22;1487;51.470;6.938;2023-05-31T06:10:10;14.30;99.90
2955;DHT22;1487;51.470;6.938;2023-05-31T06:12:37;14.40;99.90
2955;DHT22;1487;51.470;6.938;2023-05-31T06:15:04;14.40;99.90
2955;DHT22;1487;51.470;6.938;2023-05-31T06:17:31;14.60;99.90
2955;DHT22;1487;51.470;6.938;2023-05-31T06:19:59;14.70;99.90
2955;DHT22;1487;51.470;6.938;2023-05-31T06:22:26;14.90;99.90
2955;DHT22;1487;51.470;6.938;2023-05-31T06:24:55;15.10;99.90
2955;DHT22;1487;51.470;6.938;2023-05-31T06:27:23;15.30;99.90
2955;DHT22;1487;51.470;6.938;2023-05-31T06:29:50;15.70;99.90
2955;DHT22;1487;51.470;6.938;2023-05-31T06:32:20;16.10;99.90
2955;DHT22;1487;51.470;6.938;2023-05-31T06:34:47;16.40;99.90
2955;DHT22;1487;51.470;6.938;2023-05-31T06:37:15;16.70;99.90
2955;DHT22;1487;51.470;6.938;2023-05-31T06:39:42;17.50;99.90
2955;DHT22;1487;51.470;6.938;2023-05-31T06:42:09;18.40;99.90
2955;DHT22;1487;51.470;6.938;2023-05-31T06:44:37;18.70;99.90
2955;DHT22;1487;51.470;6.938;2023-05-31T06:47:04;19.00;99.90
2955;DHT22;1487;51.470;6.938;2023-05-31T06:49:31;19.70;99.90
2955;DHT22;1487;51.470;6.938;2023-05-31T06:51:58;19.90;99.90
2955;DHT22;1487;51.470;6.938;2023-05-31T06:54:26;20.50;99.90
2955;DHT22;1487;51.470;6.938;2023-05-31T06:56:53;21.40;99.90
2955;DHT22;1487;51.470;6.938;2023-05-31T06:59:20;21.80;99.90
2955;DHT22;1487;51.470;6.938;2023-05-31T07:01:47;22.20;99.90
2955;DHT22;1487;51.470;6.938;2023-05-31T07:04:14;22.50;99.90
2955;DHT22;1487;51.470;6.938;2023-05-31T07:06:41;23.10;99.90
2955;DHT22;1487;51.470;6.938;2023-05-31T07:09:07;23.40;99.90
2955;DHT22;1487;51.470;6.938;2023-05-31T07:11:38;23.80;99.90
2955;DHT22;1487;51.470;6.938;2023-05-31T07:14:05;24.40;99.90
2955;DHT22;1487;51.470;6.938;2023-05-31T07:16:31;24.90;97.90
2955;DHT22;1487;51.470;6.938;2023-05-31T07:18:58;25.40;93.80
2955;DHT22;1487;51.470;6.938;2023-05-31T07:21:25;25.40;91.10
2955;DHT22;1487;51.470;6.938;2023-05-31T07:23:52;25.30;90.20
2955;DHT22;1487;51.470;6.938;2023-05-31T07:26:19;25.10;91.50
2955;DHT22;1487;51.470;6.938;2023-05-31T07:28:47;25.40;90.00
2955;DHT22;1487;51.470;6.938;2023-05-31T07:31:14;25.70;88.40
2955;DHT22;1487;51.470;6.938;2023-05-31T07:33:41;26.00;88.80
2955;DHT22;1487;51.470;6.938;2023-05-31T07:36:08;26.10;85.50
2955;DHT22;1487;51.470;6.938;2023-05-31T07:38:35;25.90;80.80
2955;DHT22;1487;51.470;6.938;2023-05-31T07:41:02;25.30;80.70
2955;DHT22;1487;51.470;6.938;2023-05-31T07:43:30;24.70;81.80
2955;DHT22;1487;51.470;6.938;2023-05-31T07:45:59;24.50;88.30
2955;DHT22;1487;51.470;6.938;2023-05-31T07:48:25;24.90;85.20
2955;DHT22;1487;51.470;6.938;2023-05-31T07:50:54;25.10;86.80
2955;DHT22;1487;51.470;6.938;2023-05-31T07:53:20;25.40;86.20
2955;DHT22;1487;51.470;6.938;2023-05-31T07:55:47;26.00;81.10
2955;DHT22;1487;51.470;6.938;2023-05-31T07:58:14;26.50;84.70
2955;DHT22;1487;51.470;6.938;2023-05-31T08:00:41;27.20;80.30
2955;DHT22;1487;51.470;6.938;2023-05-31T08:03:09;26.90;75.70
2955;DHT22;1487;51.470;6.938;2023-05-31T08:05:36;26.80;77.00
2955;DHT22;1487;51.470;6.938;2023-05-31T08:08:03;26.60;75.60
2955;DHT22;1487;51.470;6.938;2023-05-31T08:10:31;26.80;81.70
2955;DHT22;1487;51.470;6.938;2023-05-31T08:12:58;26.30;73.40
2955;DHT22;1487;51.470;6.938;2023-05-31T08:15:25;25.80;76.70
2955;DHT22;1487;51.470;6.938;2023-05-31T08:17:51;26.10;79.20
2955;DHT22;1487;51.470;6.938;2023-05-31T08:20:20;26.80;77.90
2955;DHT22;1487;51.470;6.938;2023-05-31T08:22:47;27.00;75.40
2955;DHT22;1487;51.470;6.938;2023-05-31T08:25:14;27.70;76.30
2955;DHT22;1487;51.470;6.938;2023-05-31T08:27:42;28.30;74.80
2955;DHT22;1487;51.470;6.938;2023-05-31T08:30:10;28.80;71.70
2955;DHT22;1487;51.470;6.938;2023-05-31T08:32:37;28.80;69.40
2955;DHT22;1487;51.470;6.938;2023-05-31T08:35:06;29.30;70.40
2955;DHT22;1487;51.470;6.938;2023-05-31T08:37:37;29.50;68.00
2955;DHT22;1487;51.470;6.938;2023-05-31T08:40:05;30.30;69.90
2955;DHT22;1487;51.470;6.938;2023-05-31T08:42:36;30.70;66.10
2955;DHT22;1487;51.470;6.938;2023-05-31T08:45:05;30.70;63.00
2955;DHT22;1487;51.470;6.938;2023-05-31T08:47:38;30.80;62.40
2955;DHT22;1487;51.470;6.938;2023-05-31T08:50:06;31.40;63.40
2955;DHT22;1487;51.470;6.938;2023-05-31T08:52:35;31.80;59.90
2955;DHT22;1487;51.470;6.938;2023-05-31T08:55:03;31.80;59.60
2955;DHT22;1487;51.470;6.938;2023-05-31T08:57:30;31.80;59.10
2955;DHT22;1487;51.470;6.938;2023-05-31T09:00:01;32.50;58.00
2955;DHT22;1487;51.470;6.938;2023-05-31T09:02:33;32.40;54.40
2955;DHT22;1487;51.470;6.938;2023-05-31T09:05:01;31.80;56.80
2955;DHT22;1487;51.470;6.938;2023-05-31T09:07:30;31.80;58.00
2955;DHT22;1487;51.470;6.938;2023-05-31T09:09:58;32.50;58.40
2955;DHT22;1487;51.470;6.938;2023-05-31T09:12:28;33.00;55.90
2955;DHT22;1487;51.470;6.938;2023-05-31T09:14:56;32.80;53.30
2955;DHT22;1487;51.470;6.938;2023-05-31T09:17:23;32.30;54.40
2955;DHT22;1487;51.470;6.938;2023-05-31T09:19:52;32.30;51.30
2955;DHT22;1487;51.470;6.938;2023-05-31T09:22:20;32.00;52.80
2955;DHT22;1487;51.470;6.938;2023-05-31T09:24:54;32.20;53.30
2955;DHT22;1487;51.470;6.938;2023-05-31T09:27:22;32.10;52.40
2955;DHT22;1487;51.470;6.938;2023-05-31T09:29:53;31.90;53.20
2955;DHT22;1487;51.470;6.938;2023-05-31T09:32:20;31.90;53.40
2955;DHT22;1487;51.470;6.938;2023-05-31T09:34:47;32.50;54.80
2955;DHT22;1487;51.470;6.938;2023-05-31T09:37:21;33.20;54.40
2955;DHT22;1487;51.470;6.938;2023-05-31T09:39:55;33.90;52.10
2955;DHT22;1487;51.470;6.938;2023-05-31T09:42:24;33.90;48.70
2955;DHT22;1487;51.470;6.938;2023-05-31T09:44:52;33.60;51.10
2955;DHT22;1487;51.470;6.938;2023-05-31T09:47:23;32.50;50.00
2955;DHT22;1487;51.470;6.938;2023-05-31T09:49:53;31.90;53.00
2955;DHT22;1487;51.470;6.938;2023-05-31T09:52:25;32.30;52.80
2955;DHT22;1487;51.470;6.938;2023-05-31T09:54:54;33.20;51.90
2955;DHT22;1487;51.470;6.938;2023-05-31T09:57:33;33.80;49.20
2955;DHT22;1487;51.470;6.938;2023-05-31T10:00:07;33.90;48.30
2955;DHT22;1487;51.470;6.938;2023-05-31T10:02:38;33.20;45.40
2955;DHT22;1487;51.470;6.938;2023-05-31T10:05:08;33.00;49.10
2955;DHT22;1487;51.470;6.938;2023-05-31T10:07:36;33.80;50.20
2955;DHT22;1487;51.470;6.938;2023-05-31T10:10:04;33.90;47.50
2955;DHT22;1487;51.470;6.938;2023-05-31T10:12:37;34.30;48.90
2955;DHT22;1487;51.470;6.938;2023-05-31T10:15:07;34.80;47.80
2955;DHT22;1487;51.470;6.938;2023-05-31T10:17:39;34.20;46.30
2955;DHT22;1487;51.470;6.938;2023-05-31T10:20:10;34.50;45.90
2955;DHT22;1487;51.470;6.938;2023-05-31T10:22:39;34.90;45.30
2955;DHT22;1487;51.470;6.938;2023-05-31T10:25:10;33.90;42.60
2955;DHT22;1487;51.470;6.938;2023-05-31T10:27:41;33.50;45.60
2955;DHT22;1487;51.470;6.938;2023-05-31T10:30:09;33.70;46.50
2955;DHT22;1487;51.470;6.938;2023-05-31T10:32:41;33.60;44.00
2955;DHT22;1487;51.470;6.938;2023-05-31T10:35:10;32.90;43.60
2955;DHT22;1487;51.470;6.938;2023-05-31T10:37:38;32.20;44.20
2955;DHT22;1487;51.470;6.938;2023-05-31T10:40:10;31.90;45.80
2955;DHT22;1487;51.470;6.938;2023-05-31T10:42:46;32.60;47.80
2955;DHT22;1487;51.470;6.938;2023-05-31T10:45:18;33.50;47.20
2955;DHT22;1487;51.470;6.938;2023-05-31T10:47:52;34.10;46.50
2955;DHT22;1487;51.470;6.938;2023-05-31T10:50:21;33.30;44.00
2955;DHT22;1487;51.470;6.938;2023-05-31T10:52:48;33.60;47.00
2955;DHT22;1487;51.470;6.938;2023-05-31T10:55:17;33.10;45.50
2955;DHT22;1487;51.470;6.938;2023-05-31T10:57:49;32.60;45.50
2955;DHT22;1487;51.470;6.938;2023-05-31T11:00:19;32.80;45.90
2955;DHT22;1487;51.470;6.938;2023-05-31T11:02:47;32.40;45.80
2955;DHT22;1487;51.470;6.938;2023-05-31T11:05:19;32.80;46.70
2955;DHT22;1487;51.470;6.938;2023-05-31T11:07:47;32.40;45.80
2955;DHT22;1487;51.470;6.938;2023-05-31T11:10:24;32.60;48.10
2955;DHT22;1487;51.470;6.938;2023-05-31T11:12:56;33.00;46.70
2955;DHT22;1487;51.470;6.938;2023-05-31T11:15:24;32.60;46.10
2955;DHT22;1487;51.470;6.938;2023-05-31T11:18:07;33.20;47.50
2955;DHT22;1487;51.470;6.938;2023-05-31T11:20:34;33.70;47.60
2955;DHT22;1487;51.470;6.938;2023-05-31T11:23:26;34.00;45.30
2955;DHT22;1487;51.470;6.938;2023-05-31T11:26:08;34.50;46.50
2955;DHT22;1487;51.470;6.938;2023-05-31T11:28:56;35.10;46.30
2955;DHT22;1487;51.470;6.938;2023-05-31T11:32:00;35.70;44.30
2955;DHT22;1487;51.470;6.938;2023-05-31T11:34:29;35.70;45.50
2955;DHT22;1487;51.470;6.938;2023-05-31T11:36:57;36.00;44.70
2955;DHT22;1487;51.470;6.938;2023-05-31T11:39:24;36.20;43.80
2955;DHT22;1487;51.470;6.938;2023-05-31T11:41:52;35.40;42.50
2955;DHT22;1487;51.470;6.938;2023-05-31T11:44:27;34.90;44.60
2955;DHT22;1487;51.470;6.938;2023-05-31T11:46:59;35.10;45.60
2955;DHT22;1487;51.470;6.938;2023-05-31T11:49:27;35.50;46.00
2955;DHT22;1487;51.470;6.938;2023-05-31T11:51:54;35.50;43.60
2955;DHT22;1487;51.470;6.938;2023-05-31T11:54:25;35.70;45.20
2955;DHT22;1487;51.470;6.938;2023-05-31T11:56:56;35.50;43.40
2955;DHT22;1487;51.470;6.938;2023-05-31T11:59:26;35.50;44.30
2955;DHT22;1487;51.470;6.938;2023-05-31T12:01:56;35.70;45.10
2955;DHT22;1487;51.470;6.938;2023-05-31T12:04:32;36.10;43.60
2955;DHT22;1487;51.470;6.938;2023-05-31T12:06:59;35.70;41.90
2955;DHT22;1487;51.470;6.938;2023-05-31T12:09:27;35.20;42.80
2955;DHT22;1487;51.470;6.938;2023-05-31T12:11:54;34.30;43.40
2955;DHT22;1487;51.470;6.938;2023-05-31T12:14:22;34.20;45.10
2955;DHT22;1487;51.470;6.938;2023-05-31T12:16:51;34.10;44.50
2955;DHT22;1487;51.470;6.938;2023-05-31T12:19:18;34.30;45.70
2955;DHT22;1487;51.470;6.938;2023-05-31T12:21:45;34.20;44.10
2955;DHT22;1487;51.470;6.938;2023-05-31T12:24:13;34.60;45.10
2955;DHT22;1487;51.470;6.938;2023-05-31T12:26:42;35.20;47.00
2955;DHT22;1487;51.470;6.938;2023-05-31T12:29:10;35.30;44.00
2955;DHT22;1487;51.470;6.938;2023-05-31T12:31:37;35.40;44.60
2955;DHT22;1487;51.470;6.938;2023-05-31T12:34:10;35.70;44.90
2955;DHT22;1487;51.470;6.938;2023-05-31T12:36:47;36.10;46.10
2955;DHT22;1487;51.470;6.938;2023-05-31T12:39:17;36.50;43.80
2955;DHT22;1487;51.470;6.938;2023-05-31T12:41:45;36.60;43.40
2955;DHT22;1487;51.470;6.938;2023-05-31T12:44:12;36.10;43.50
2955;DHT22;1487;51.470;6.938;2023-05-31T12:46:42;36.10;42.50
2955;DHT22;1487;51.470;6.938;2023-05-31T12:49:18;36.10;44.70
2955;DHT22;1487;51.470;6.938;2023-05-31T12:51:45;35.50;43.50
2955;DHT22;1487;51.470;6.938;2023-05-31T12:54:13;34.60;44.00
2955;DHT22;1487;51.470;6.938;2023-05-31T12:56:40;34.50;44.40
2955;DHT22;1487;51.470;6.938;2023-05-31T12:59:07;34.50;46.50
2955;DHT22;1487;51.470;6.938;2023-05-31T13:01:36;34.80;45.50
2955;DHT22;1487;51.470;6.938;2023-05-31T13:04:06;34.40;43.30
2955;DHT22;1487;51.470;6.938;2023-05-31T13:06:34;34.00;44.70
2955;DHT22;1487;51.470;6.938;2023-05-31T13:09:02;33.90;44.20
2955;DHT22;1487;51.470;6.938;2023-05-31T13:11:31;33.50;45.50
2955;DHT22;1487;51.470;6.938;2023-05-31T13:13:59;33.30;46.10
2955;DHT22;1487;51.470;6.938;2023-05-31T13:16:26;33.80;47.20
2955;DHT22;1487;51.470;6.938;2023-05-31T13:18:54;34.00;46.20
2955;DHT22;1487;51.470;6.938;2023-05-31T13:21:21;34.20;46.30
2955;DHT22;1487;51.470;6.938;2023-05-31T13:23:49;34.50;47.10
2955;DHT22;1487;51.470;6.938;2023-05-31T13:26:16;33.60;44.40
2955;DHT22;1487;51.470;6.938;2023-05-31T13:28:43;33.40;46.10
2955;DHT22;1487;51.470;6.938;2023-05-31T13:31:10;33.90;47.40
2955;DHT22;1487;51.470;6.938;2023-05-31T13:33:37;34.60;46.00
2955;DHT22;1487;51.470;6.938;2023-05-31T13:36:04;35.00;46.10
2955;DHT22;1487;51.470;6.938;2023-05-31T13:38:31;35.60;45.10
2955;DHT22;1487;51.470;6.938;2023-05-31T13:41:00;35.70;44.50
2955;DHT22;1487;51.470;6.938;2023-05-31T13:43:26;35.60;45.10
2955;DHT22;1487;51.470;6.938;2023-05-31T13:45:55;35.90;44.40
2955;DHT22;1487;51.470;6.938;2023-05-31T13:48:21;36.00;44.40
2955;DHT22;1487;51.470;6.938;2023-05-31T13:50:48;35.50;42.10
2955;DHT22;1487;51.470;6.938;2023-05-31T13:53:15;34.80;44.00
2955;DHT22;1487;51.470;6.938;2023-05-31T13:55:43;34.50;44.80
2955;DHT22;1487;51.470;6.938;2023-05-31T13:58:13;34.10;45.00
2955;DHT22;1487;51.470;6.938;2023-05-31T14:00:40;34.10;45.60
2955;DHT22;1487;51.470;6.938;2023-05-31T14:03:07;33.80;45.50
2955;DHT22;1487;51.470;6.938;2023-05-31T14:05:33;32.70;45.70
2955;DHT22;1487;51.470;6.938;2023-05-31T14:08:00;32.30;48.60
2955;DHT22;1487;51.470;6.938;2023-05-31T14:10:27;32.50;46.70
2955;DHT22;1487;51.470;6.938;2023-05-31T14:12:54;31.60;45.60
2955;DHT22;1487;51.470;6.938;2023-05-31T14:15:22;30.50;47.30
2955;DHT22;1487;51.470;6.938;2023-05-31T14:17:49;29.70;49.10
2955;DHT22;1487;51.470;6.938;2023-05-31T14:20:16;29.90;50.20
2955;DHT22;1487;51.470;6.938;2023-05-31T14:22:43;30.00;50.50
2955;DHT22;1487;51.470;6.938;2023-05-31T14:25:10;30.50;51.40
2955;DHT22;1487;51.470;6.938;2023-05-31T14:27:37;31.20;50.50
2955;DHT22;1487;51.470;6.938;2023-05-31T14:30:05;31.50;49.60
2955;DHT22;1487;51.470;6.938;2023-05-31T14:32:34;31.60;49.90
2955;DHT22;1487;51.470;6.938;2023-05-31T14:35:01;31.80;48.70
2955;DHT22;1487;51.470;6.938;2023-05-31T14:37:28;32.10;48.30
2955;DHT22;1487;51.470;6.938;2023-05-31T14:39:55;32.20;48.20
2955;DHT22;1487;51.470;6.938;2023-05-31T14:42:22;32.50;47.50
2955;DHT22;1487;51.470;6.938;2023-05-31T14:44:49;32.60;46.50
2955;DHT22;1487;51.470;6.938;2023-05-31T14:47:16;32.40;47.90
2955;DHT22;1487;51.470;6.938;2023-05-31T14:49:44;32.30;47.30
2955;DHT22;1487;51.470;6.938;2023-05-31T14:52:11;32.00;48.00
2955;DHT22;1487;51.470;6.938;2023-05-31T14:54:38;32.40;49.20
2955;DHT22;1487;51.470;6.938;2023-05-31T14:57:05;32.60;47.80
2955;DHT22;1487;51.470;6.938;2023-05-31T14:59:32;32.80;47.60
2955;DHT22;1487;51.470;6.938;2023-05-31T15:01:59;32.90;48.20
2955;DHT22;1487;51.470;6.938;2023-05-31T15:04:26;32.70;47.10
2955;DHT22;1487;51.470;6.938;2023-05-31T15:06:54;32.40;48.90
2955;DHT22;1487;51.470;6.938;2023-05-31T15:09:21;32.60;48.60
2955;DHT22;1487;51.470;6.938;2023-05-31T15:11:48;33.00;48.30
2955;DHT22;1487;51.470;6.938;2023-05-31T15:14:15;33.10;48.00
2955;DHT22;1487;51.470;6.938;2023-05-31T15:16:42;33.10;47.90
2955;DHT22;1487;51.470;6.938;2023-05-31T15:19:10;33.10;47.80
2955;DHT22;1487;51.470;6.938;2023-05-31T15:21:37;33.10;47.60
2955;DHT22;1487;51.470;6.938;2023-05-31T15:24:06;33.10;47.40
2955;DHT22;1487;51.470;6.938;2023-05-31T15:26:33;32.80;46.90
2955;DHT22;1487;51.470;6.938;2023-05-31T15:29:00;32.80;47.40
2955;DHT22;1487;51.470;6.938;2023-05-31T15:31:27;32.60;46.90
2955;DHT22;1487;51.470;6.938;2023-05-31T15:33:54;32.40;47.40
2955;DHT22;1487;51.470;6.938;2023-05-31T15:36:21;32.60;47.90
2955;DHT22;1487;51.470;6.938;2023-05-31T15:38:48;32.50;46.70
2955;DHT22;1487;51.470;6.938;2023-05-31T15:41:17;31.90;47.30
2955;DHT22;1487;51.470;6.938;2023-05-31T15:43:44;31.10;48.20
2955;DHT22;1487;51.470;6.938;2023-05-31T15:46:11;30.90;49.00
2955;DHT22;1487;51.470;6.938;2023-05-31T15:48:37;30.50;48.80
2955;DHT22;1487;51.470;6.938;2023-05-31T15:51:04;30.40;49.40
2955;DHT22;1487;51.470;6.938;2023-05-31T15:53:31;29.90;49.30
2955;DHT22;1487;51.470;6.938;2023-05-31T15:55:58;29.70;50.70
2955;DHT22;1487;51.470;6.938;2023-05-31T15:58:26;29.60;50.80
2955;DHT22;1487;51.470;6.938;2023-05-31T16:00:53;29.40;51.10
2955;DHT22;1487;51.470;6.938;2023-05-31T16:03:24;28.90;51.40
2955;DHT22;1487;51.470;6.938;2023-05-31T16:05:52;28.70;51.90
2955;DHT22;1487;51.470;6.938;2023-05-31T16:08:18;28.30;52.30